Date,TemperatureHighF,TemperatureAvgF,TemperatureLowF,DewpointHighF,DewpointAvgF,DewpointLowF,HumidityHigh,HumidityAvg,HumidityLow,PressureMaxIn,PressureMinIn,WindSpeedMaxMPH,WindSpeedAvgMPH,GustSpeedMaxMPH,PrecipitationSumIn
2013-2-1,20,14,8,11,3,-100,87,68,58,30.08,0.00,3,-32,16,0.00
2013-2-2,18,12,2,12,6,-1,91,78,57,30.20,30.07,3,0,8,0.00
2013-2-3,22,16,8,15,11,6,93,80,65,30.07,29.74,2,0,5,0.00
2013-2-4,19,13,2,12,6,-5,92,72,46,29.92,29.70,4,1,11,0.00
2013-2-5,17,9,-2,8,-3,-8,78,59,41,30.06,29.92,3,0,7,0.00
2013-2-6,28,18,5,22,10,-8,87,73,51,30.35,29.93,5,0,8,0.00
2013-2-7,12,7,-1,1,-7,-14,76,54,36,30.57,30.36,4,0,7,0.00
2013-2-8,24,18,12,20,13,0,92,81,54,30.52,29.90,13,2,17,0.00
2013-2-9,12,8,1,10,5,-2,91,86,79,30.34,29.88,8,1,18,0.00
2013-2-10,23,12,-1,12,4,-4,88,71,45,30.51,30.35,2,0,6,0.01
2013-2-11,34,28,15,33,23,8,99,81,48,30.37,29.61,12,1,18,0.00
2013-2-12,34,31,28,33,29,26,99,93,88,29.82,29.59,2,0,6,0.00
2013-2-13,33,28,25,26,24,21,93,84,72,29.85,29.76,1,0,4,0.00
2013-2-14,31,26,22,23,20,18,92,79,63,29.99,29.73,2,0,4,0.00
2013-2-15,42,33,26,31,25,19,87,73,57,29.97,29.88,7,0,10,0.01
2013-2-16,29,24,16,24,17,6,94,75,61,29.96,29.86,2,0,6,0.00
2013-2-17,16,11,6,8,2,-100,87,73,63,29.85,29.56,4,-25,10,0.00
2013-2-18,17,9,0,2,-3,-9,82,60,33,30.20,29.77,6,1,11,0.00
2013-2-19,42,27,9,32,13,-7,96,57,29,30.21,29.59,6,1,20,0.05
2013-2-20,33,24,18,32,22,16,97,90,77,29.71,29.53,4,0,4,0.00
2013-2-21,18,13,7,17,10,4,93,86,72,30.34,29.71,0,0,0,0.00
2013-2-22,32,24,16,26,19,-100,94,86,70,30.48,30.31,0,-10,0,0.00
2013-2-23,33,29,25,29,26,22,97,89,83,30.31,29.94,0,0,0,0.00
2013-2-24,33,30,28,31,29,27,98,96,92,29.94,29.78,0,0,0,0.01
2013-2-25,34,30,28,30,28,27,98,94,84,30.25,29.92,0,0,0,0.00
2013-2-26,42,32,27,33,28,24,96,87,70,30.34,30.18,4,0,10,0.13
2013-2-27,38,33,28,32,27,23,92,80,74,30.16,29.65,13,4,31,0.00
2013-2-28,42,35,28,32,30,26,98,84,68,29.65,29.56,9,1,15,0.47